sensor_id;sensor_type;location;lat;lon;timestamp;pressure;altitude;pressure_sealevel;temperature;humidity
75146;BME280;63641;46.526;24.612;2023-12-29T00:01:34;97836.19;;;-1.71;75.50
75146;BME280;63641;46.526;24.612;2023-12-29T00:04:01;97831.69;;;-1.70;75.27
75146;BME280;63641;46.526;24.612;2023-12-29T00:06:28;97827.41;;;-1.71;75.34
75146;BME280;63641;46.526;24.612;2023-12-29T00:08:55;97835.44;;;-1.64;75.49
75146;BME280;63641;46.526;24.612;2023-12-29T00:11:22;97826.03;;;-1.67;75.82
75146;BME280;63641;46.526;24.612;2023-12-29T00:13:49;97835.44;;;-1.64;75.58
75146;BME280;63641;46.526;24.612;2023-12-29T00:16:15;97830.50;;;-1.67;75.87
75146;BME280;63641;46.526;24.612;2023-12-29T00:18:42;97823.13;;;-1.72;75.95
75146;BME280;63641;46.526;24.612;2023-12-29T00:21:10;97815.53;;;-1.75;76.00
75146;BME280;63641;46.526;24.612;2023-12-29T00:23:37;97822.31;;;-1.73;75.78
75146;BME280;63641;46.526;24.612;2023-12-29T00:26:04;97815.75;;;-1.77;75.87
75146;BME280;63641;46.526;24.612;2023-12-29T00:28:31;97816.56;;;-1.76;75.87
75146;BME280;63641;46.526;24.612;2023-12-29T00:30:58;97810.75;;;-1.86;75.87
75146;BME280;63641;46.526;24.612;2023-12-29T00:33:29;97817.31;;;-1.82;76.01
75146;BME280;63641;46.526;24.612;2023-12-29T00:35:57;97813.41;;;-1.86;76.05
75146;BME280;63641;46.526;24.612;2023-12-29T00:38:27;97823.06;;;-1.79;76.20
75146;BME280;63641;46.526;24.612;2023-12-29T00:40:57;97825.47;;;-1.84;75.78
75146;BME280;63641;46.526;24.612;2023-12-29T00:43:24;97821.00;;;-1.83;76.22
75146;BME280;63641;46.526;24.612;2023-12-29T00:45:51;97826.28;;;-1.83;75.91
75146;BME280;63641;46.526;24.612;2023-12-29T00:48:17;97827.69;;;-1.87;76.13
75146;BME280;63641;46.526;24.612;2023-12-29T00:50:44;97828.22;;;-1.92;76.42
75146;BME280;63641;46.526;24.612;2023-12-29T00:53:11;97821.59;;;-2.03;76.20
75146;BME280;63641;46.526;24.612;2023-12-29T00:55:38;97845.16;;;-1.93;76.15
75146;BME280;63641;46.526;24.612;2023-12-29T00:58:04;97842.31;;;-1.91;76.25
75146;BME280;63641;46.526;24.612;2023-12-29T01:00:32;97820.03;;;-1.97;76.43
75146;BME280;63641;46.526;24.612;2023-12-29T01:02:59;97836.84;;;-1.90;76.27
75146;BME280;63641;46.526;24.612;2023-12-29T01:05:26;97831.78;;;-1.85;76.27
75146;BME280;63641;46.526;24.612;2023-12-29T01:07:54;97835.44;;;-1.86;76.21
75146;BME280;63641;46.526;24.612;2023-12-29T01:10:21;97840.38;;;-1.83;76.18
75146;BME280;63641;46.526;24.612;2023-12-29T01:12:48;97846.69;;;-1.84;76.34
75146;BME280;63641;46.526;24.612;2023-12-29T01:15:15;97845.47;;;-1.81;76.24
75146;BME280;63641;46.526;24.612;2023-12-29T01:17:42;97832.41;;;-1.83;76.08
75146;BME280;63641;46.526;24.612;2023-12-29T01:20:09;97826.03;;;-1.88;76.29
75146;BME280;63641;46.526;24.612;2023-12-29T01:22:36;97846.28;;;-1.81;76.44
75146;BME280;63641;46.526;24.612;2023-12-29T01:25:03;97845.47;;;-1.81;76.30
75146;BME280;63641;46.526;24.612;2023-12-29T01:27:30;97846.94;;;-1.79;76.33
75146;BME280;63641;46.526;24.612;2023-12-29T01:29:57;97839.34;;;-1.82;76.45
75146;BME280;63641;46.526;24.612;2023-12-29T01:32:24;97832.22;;;-1.81;76.14
75146;BME280;63641;46.526;24.612;2023-12-29T01:34:52;97837.34;;;-1.80;76.43
75146;BME280;63641;46.526;24.612;2023-12-29T01:37:19;97833.69;;;-1.79;76.17
75146;BME280;63641;46.526;24.612;2023-12-29T01:39:46;97847.19;;;-1.74;76.34
75146;BME280;63641;46.526;24.612;2023-12-29T01:42:13;97831.84;;;-1.78;76.42
75146;BME280;63641;46.526;24.612;2023-12-29T01:44:40;97834.94;;;-1.75;76.15
75146;BME280;63641;46.526;24.612;2023-12-29T01:47:13;97832.94;;;-1.73;76.56
75146;BME280;63641;46.526;24.612;2023-12-29T01:49:44;97833.75;;;-1.72;76.24
75146;BME280;63641;46.526;24.612;2023-12-29T01:52:13;97839.66;;;-1.70;76.17
75146;BME280;63641;46.526;24.612;2023-12-29T01:54:41;97828.00;;;-1.76;76.30
75146;BME280;63641;46.526;24.612;2023-12-29T01:57:10;97831.25;;;-1.74;76.41
75146;BME280;63641;46.526;24.612;2023-12-29T01:59:37;97830.22;;;-1.79;76.25
75146;BME280;63641;46.526;24.612;2023-12-29T02:02:07;97832.03;;;-1.80;76.53
75146;BME280;63641;46.526;24.612;2023-12-29T02:04:35;97814.59;;;-1.89;76.58
75146;BME280;63641;46.526;24.612;2023-12-29T02:07:03;97819.72;;;-1.87;76.40
75146;BME280;63641;46.526;24.612;2023-12-29T02:09:30;97816.81;;;-1.92;76.53
75146;BME280;63641;46.526;24.612;2023-12-29T02:12:00;97813.97;;;-1.91;76.74
75146;BME280;63641;46.526;24.612;2023-12-29T02:14:27;97812.31;;;-1.92;76.64
75146;BME280;63641;46.526;24.612;2023-12-29T02:22:08;97814.34;;;-1.94;76.96
75146;BME280;63641;46.526;24.612;2023-12-29T02:24:36;97809.44;;;-1.97;76.91
75146;BME280;63641;46.526;24.612;2023-12-29T02:30:06;97817.91;;;-1.87;76.65
75146;BME280;63641;46.526;24.612;2023-12-29T02:32:37;97813.22;;;-1.85;76.83
75146;BME280;63641;46.526;24.612;2023-12-29T02:35:06;97799.88;;;-1.91;76.97
75146;BME280;63641;46.526;24.612;2023-12-29T02:37:36;97802.44;;;-1.83;76.70
75146;BME280;63641;46.526;24.612;2023-12-29T02:40:04;97809.16;;;-1.81;76.78
75146;BME280;63641;46.526;24.612;2023-12-29T02:42:32;97798.53;;;-1.81;76.90
75146;BME280;63641;46.526;24.612;2023-12-29T02:45:00;97808.97;;;-1.79;76.81
75146;BME280;63641;46.526;24.612;2023-12-29T02:47:27;97791.59;;;-1.82;77.20
75146;BME280;63641;46.526;24.612;2023-12-29T02:49:54;97782.53;;;-1.94;77.07
75146;BME280;63641;46.526;24.612;2023-12-29T02:52:21;97790.34;;;-1.86;76.88
75146;BME280;63641;46.526;24.612;2023-12-29T02:54:48;97779.31;;;-1.89;77.22
75146;BME280;63641;46.526;24.612;2023-12-29T02:57:15;97791.16;;;-1.85;76.97
75146;BME280;63641;46.526;24.612;2023-12-29T02:59:42;97803.84;;;-1.81;76.83
75146;BME280;63641;46.526;24.612;2023-12-29T03:02:08;97813.09;;;-1.77;76.97
75146;BME280;63641;46.526;24.612;2023-12-29T03:04:35;97803.47;;;-1.78;77.06
75146;BME280;63641;46.526;24.612;2023-12-29T03:07:02;97801.47;;;-1.76;77.11
75146;BME280;63641;46.526;24.612;2023-12-29T03:09:29;97799.19;;;-1.79;77.05
75146;BME280;63641;46.526;24.612;2023-12-29T03:11:56;97794.25;;;-1.82;77.18
75146;BME280;63641;46.526;24.612;2023-12-29T03:14:23;97810.00;;;-1.80;77.26
75146;BME280;63641;46.526;24.612;2023-12-29T03:16:50;97810.38;;;-1.83;77.11
75146;BME280;63641;46.526;24.612;2023-12-29T03:19:16;97805.50;;;-1.80;77.03
75146;BME280;63641;46.526;24.612;2023-12-29T03:21:43;97810.00;;;-1.80;77.33
75146;BME280;63641;46.526;24.612;2023-12-29T03:24:10;97807.72;;;-1.83;77.12
75146;BME280;63641;46.526;24.612;2023-12-29T03:26:37;97815.75;;;-1.77;77.18
75146;BME280;63641;46.526;24.612;2023-12-29T03:29:04;97813.47;;;-1.80;77.05
75146;BME280;63641;46.526;24.612;2023-12-29T03:31:31;97819.59;;;-1.79;77.11
75146;BME280;63641;46.526;24.612;2023-12-29T03:33:58;97824.63;;;-1.84;76.90
75146;BME280;63641;46.526;24.612;2023-12-29T03:36:25;97826.59;;;-1.93;76.96
75146;BME280;63641;46.526;24.612;2023-12-29T03:38:51;97818.34;;;-2.05;77.17
75146;BME280;63641;46.526;24.612;2023-12-29T03:41:18;97814.78;;;-2.12;77.46
75146;BME280;63641;46.526;24.612;2023-12-29T03:43:45;97830.31;;;-2.09;77.66
75146;BME280;63641;46.526;24.612;2023-12-29T03:46:19;97826.03;;;-2.10;77.56
75146;BME280;63641;46.526;24.612;2023-12-29T03:48:47;97825.84;;;-2.08;77.22
75146;BME280;63641;46.526;24.612;2023-12-29T03:51:15;97805.13;;;-2.20;77.45
75146;BME280;63641;46.526;24.612;2023-12-29T03:53:42;97816.63;;;-2.12;77.38
75146;BME280;63641;46.526;24.612;2023-12-29T03:56:15;97823.81;;;-2.06;77.01
75146;BME280;63641;46.526;24.612;2023-12-29T03:58:46;97819.34;;;-2.06;77.36
75146;BME280;63641;46.526;24.612;2023-12-29T04:01:14;97817.16;;;-2.02;77.34
75146;BME280;63641;46.526;24.612;2023-12-29T04:03:42;97808.34;;;-2.03;77.17
75146;BME280;63641;46.526;24.612;2023-12-29T04:06:09;97798.06;;;-2.12;77.07
75146;BME280;63641;46.526;24.612;2023-12-29T04:08:37;97798.88;;;-2.12;77.27
75146;BME280;63641;46.526;24.612;2023-12-29T04:11:04;97801.72;;;-2.13;77.13
75146;BME280;63641;46.526;24.612;2023-12-29T04:13:31;97805.19;;;-2.13;77.02
75146;BME280;63641;46.526;24.612;2023-12-29T04:15:58;97799.25;;;-2.15;77.23
75146;BME280;63641;46.526;24.612;2023-12-29T04:18:25;97815.03;;;-2.07;77.11
75146;BME280;63641;46.526;24.612;2023-12-29T04:20:52;97816.88;;;-2.07;77.19
75146;BME280;63641;46.526;24.612;2023-12-29T04:23:19;97807.47;;;-2.10;77.28
75146;BME280;63641;46.526;24.612;2023-12-29T04:25:46;97803.00;;;-2.09;76.97
75146;BME280;63641;46.526;24.612;2023-12-29T04:28:13;97809.94;;;-2.08;76.97
75146;BME280;63641;46.526;24.612;2023-12-29T04:30:40;97807.28;;;-2.08;76.88
75146;BME280;63641;46.526;24.612;2023-12-29T04:33:07;97817.50;;;-2.05;77.05
75146;BME280;63641;46.526;24.612;2023-12-29T04:35:33;97815.25;;;-2.08;77.08
75146;BME280;63641;46.526;24.612;2023-12-29T04:38:00;97814.59;;;-2.10;76.65
75146;BME280;63641;46.526;24.612;2023-12-29T04:40:27;97818.25;;;-2.11;76.85
75146;BME280;63641;46.526;24.612;2023-12-29T04:42:54;97806.03;;;-2.12;76.89
75146;BME280;63641;46.526;24.612;2023-12-29T04:45:21;97812.97;;;-2.11;76.71
75146;BME280;63641;46.526;24.612;2023-12-29T04:47:48;97805.56;;;-2.16;76.93
75146;BME280;63641;46.526;24.612;2023-12-29T04:50:15;97818.25;;;-2.11;76.80
75146;BME280;63641;46.526;24.612;2023-12-29T04:52:42;97816.63;;;-2.12;76.84
75146;BME280;63641;46.526;24.612;2023-12-29T04:55:09;97811.94;;;-2.10;77.01
75146;BME280;63641;46.526;24.612;2023-12-29T04:57:36;97820.09;;;-2.12;77.08
75146;BME280;63641;46.526;24.612;2023-12-29T05:00:06;97826.22;;;-2.11;77.07
75146;BME280;63641;46.526;24.612;2023-12-29T05:02:34;97824.31;;;-2.17;76.90
75146;BME280;63641;46.526;24.612;2023-12-29T05:05:01;97828.63;;;-2.16;76.75
75146;BME280;63641;46.526;24.612;2023-12-29T05:07:27;97838.13;;;-2.22;76.64
75146;BME280;63641;46.526;24.612;2023-12-29T05:09:54;97831.13;;;-2.30;76.99
75146;BME280;63641;46.526;24.612;2023-12-29T05:12:21;97831.84;;;-2.36;77.10
75146;BME280;63641;46.526;24.612;2023-12-29T05:14:48;97840.00;;;-2.37;77.13
75146;BME280;63641;46.526;24.612;2023-12-29T05:17:15;97825.22;;;-2.47;76.97
75146;BME280;63641;46.526;24.612;2023-12-29T05:19:41;97831.88;;;-2.51;77.06
75146;BME280;63641;46.526;24.612;2023-12-29T05:22:08;97836.38;;;-2.51;77.33
75146;BME280;63641;46.526;24.612;2023-12-29T05:24:35;97839.00;;;-2.51;77.04
75146;BME280;63641;46.526;24.612;2023-12-29T05:27:02;97830.44;;;-2.53;77.06
75146;BME280;63641;46.526;24.612;2023-12-29T05:29:29;97827.16;;;-2.55;76.88
75146;BME280;63641;46.526;24.612;2023-12-29T05:31:56;97825.50;;;-2.56;76.86
75146;BME280;63641;46.526;24.612;2023-12-29T05:34:23;97824.03;;;-2.59;77.09
75146;BME280;63641;46.526;24.612;2023-12-29T05:36:50;97834.28;;;-2.56;77.03
75146;BME280;63641;46.526;24.612;2023-12-29T05:39:17;97826.69;;;-2.59;76.69
75146;BME280;63641;46.526;24.612;2023-12-29T05:41:43;97823.97;;;-2.65;76.78
75146;BME280;63641;46.526;24.612;2023-12-29T05:44:10;97819.22;;;-2.70;76.76
75146;BME280;63641;46.526;24.612;2023-12-29T05:46:37;97821.06;;;-2.71;76.73
75146;BME280;63641;46.526;24.612;2023-12-29T05:49:04;97835.31;;;-2.72;76.73
75146;BME280;63641;46.526;24.612;2023-12-29T05:51:31;97835.03;;;-2.77;76.70
75146;BME280;63641;46.526;24.612;2023-12-29T05:53:58;97833.75;;;-2.81;76.45
75146;BME280;63641;46.526;24.612;2023-12-29T05:56:24;97841.69;;;-2.81;76.41
75146;BME280;63641;46.526;24.612;2023-12-29T05:58:52;97838.22;;;-2.81;76.63
75146;BME280;63641;46.526;24.612;2023-12-29T06:01:19;97839.41;;;-2.84;76.55
75146;BME280;63641;46.526;24.612;2023-12-29T06:03:46;97833.66;;;-2.87;76.32
75146;BME280;63641;46.526;24.612;2023-12-29T06:06:13;97836.97;;;-2.85;76.35
75146;BME280;63641;46.526;24.612;2023-12-29T06:08:40;97845.09;;;-2.87;76.29
75146;BME280;63641;46.526;24.612;2023-12-29T06:11:07;97835.22;;;-2.93;76.11
75146;BME280;63641;46.526;24.612;2023-12-29T06:13:34;97834.88;;;-2.90;76.05
75146;BME280;63641;46.526;24.612;2023-12-29T06:16:00;97840.53;;;-2.93;76.26
75146;BME280;63641;46.526;24.612;2023-12-29T06:18:28;97847.44;;;-2.92;75.84
75146;BME280;63641;46.526;24.612;2023-12-29T06:20:55;97860.34;;;-2.89;75.87
75146;BME280;63641;46.526;24.612;2023-12-29T06:23:21;97853.94;;;-2.95;75.95
75146;BME280;63641;46.526;24.612;2023-12-29T06:25:48;97857.69;;;-2.89;75.75
75146;BME280;63641;46.526;24.612;2023-12-29T06:28:15;97837.88;;;-2.93;75.73
75146;BME280;63641;46.526;24.612;2023-12-29T06:30:42;97845.91;;;-2.86;75.86
75146;BME280;63641;46.526;24.612;2023-12-29T06:33:09;97845.34;;;-2.82;75.71
75146;BME280;63641;46.526;24.612;2023-12-29T06:35:36;97851.94;;;-2.78;75.47
75146;BME280;63641;46.526;24.612;2023-12-29T06:38:05;97848.09;;;-2.75;75.71
75146;BME280;63641;46.526;24.612;2023-12-29T06:40:32;97849.53;;;-2.73;75.51
75146;BME280;63641;46.526;24.612;2023-12-29T06:42:59;97847.34;;;-2.69;75.53
75146;BME280;63641;46.526;24.612;2023-12-29T06:45:26;97848.66;;;-2.65;75.28
75146;BME280;63641;46.526;24.612;2023-12-29T06:47:53;97852.72;;;-2.62;75.58
75146;BME280;63641;46.526;24.612;2023-12-29T06:50:20;97843.81;;;-2.61;75.27
75146;BME280;63641;46.526;24.612;2023-12-29T06:52:47;97865.88;;;-2.54;75.23
75146;BME280;63641;46.526;24.612;2023-12-29T06:55:14;97849.09;;;-2.61;75.50
75146;BME280;63641;46.526;24.612;2023-12-29T06:57:40;97849.16;;;-2.55;75.39
75146;BME280;63641;46.526;24.612;2023-12-29T07:00:07;97860.03;;;-2.50;75.44
75146;BME280;63641;46.526;24.612;2023-12-29T07:02:38;97854.44;;;-2.40;75.39
75146;BME280;63641;46.526;24.612;2023-12-29T07:05:06;97854.06;;;-2.37;75.32
75146;BME280;63641;46.526;24.612;2023-12-29T07:07:34;97861.28;;;-2.31;75.50
75146;BME280;63641;46.526;24.612;2023-12-29T07:10:02;97862.56;;;-2.27;75.52
75146;BME280;63641;46.526;24.612;2023-12-29T07:12:30;97850.69;;;-2.31;75.22
75146;BME280;63641;46.526;24.612;2023-12-29T07:14:57;97857.44;;;-2.28;75.36
75146;BME280;63641;46.526;24.612;2023-12-29T07:17:24;97869.94;;;-2.22;75.43
75146;BME280;63641;46.526;24.612;2023-12-29T07:19:51;97864.28;;;-2.19;75.18
75146;BME280;63641;46.526;24.612;2023-12-29T07:22:18;97874.94;;;-2.12;75.33
75146;BME280;63641;46.526;24.612;2023-12-29T07:24:45;97865.16;;;-2.12;75.40
75146;BME280;63641;46.526;24.612;2023-12-29T07:27:12;97864.03;;;-2.03;75.62
75146;BME280;63641;46.526;24.612;2023-12-29T07:29:38;97867.31;;;-2.01;75.53
75146;BME280;63641;46.526;24.612;2023-12-29T07:32:05;97868.13;;;-2.00;75.47
75146;BME280;63641;46.526;24.612;2023-12-29T07:34:32;97861.44;;;-1.96;75.53
75146;BME280;63641;46.526;24.612;2023-12-29T07:36:59;97862.53;;;-1.90;75.26
75146;BME280;63641;46.526;24.612;2023-12-29T07:39:26;97853.38;;;-1.88;75.21
75146;BME280;63641;46.526;24.612;2023-12-29T07:41:53;97864.50;;;-1.78;75.63
75146;BME280;63641;46.526;24.612;2023-12-29T07:44:20;97858.59;;;-1.73;75.63
75146;BME280;63641;46.526;24.612;2023-12-29T07:46:46;97861.69;;;-1.70;75.66
75146;BME280;63641;46.526;24.612;2023-12-29T07:49:13;97854.38;;;-1.67;75.65
75146;BME280;63641;46.526;24.612;2023-12-29T07:51:42;97866.53;;;-1.58;75.55
75146;BME280;63641;46.526;24.612;2023-12-29T07:54:10;97860.44;;;-1.52;75.37
75146;BME280;63641;46.526;24.612;2023-12-29T07:56:36;97863.34;;;-1.47;75.51
75146;BME280;63641;46.526;24.612;2023-12-29T07:59:04;97866.44;;;-1.43;75.50
75146;BME280;63641;46.526;24.612;2023-12-29T08:01:31;97873.63;;;-1.37;75.54
75146;BME280;63641;46.526;24.612;2023-12-29T08:03:58;97872.44;;;-1.35;75.41
75146;BME280;63641;46.526;24.612;2023-12-29T08:06:25;97868.38;;;-1.31;75.38
75146;BME280;63641;46.526;24.612;2023-12-29T08:08:53;97869.03;;;-1.29;75.30
75146;BME280;63641;46.526;24.612;2023-12-29T08:11:20;97862.91;;;-1.23;75.29
75146;BME280;63641;46.526;24.612;2023-12-29T08:13:48;97861.91;;;-1.22;75.47
75146;BME280;63641;46.526;24.612;2023-12-29T08:16:16;97879.13;;;-1.11;75.45
75146;BME280;63641;46.526;24.612;2023-12-29T08:18:48;97879.84;;;-1.02;75.44
75146;BME280;63641;46.526;24.612;2023-12-29T08:21:21;97873.97;;;-0.91;75.80
75146;BME280;63641;46.526;24.612;2023-12-29T08:23:48;97873.44;;;-0.80;75.47
75146;BME280;63641;46.526;24.612;2023-12-29T08:26:15;97881.88;;;-0.69;75.23
75146;BME280;63641;46.526;24.612;2023-12-29T08:28:42;97881.72;;;-0.61;75.24
75146;BME280;63641;46.526;24.612;2023-12-29T08:31:09;97874.00;;;-0.50;75.45
75146;BME280;63641;46.526;24.612;2023-12-29T08:33:36;97879.97;;;-0.41;75.44
75146;BME280;63641;46.526;24.612;2023-12-29T08:36:04;97876.50;;;-0.41;75.54
75146;BME280;63641;46.526;24.612;2023-12-29T08:38:31;97872.66;;;-0.32;75.55
75146;BME280;63641;46.526;24.612;2023-12-29T08:40:59;97867.59;;;-0.20;75.74
75146;BME280;63641;46.526;24.612;2023-12-29T08:43:26;97869.63;;;-0.16;75.66
75146;BME280;63641;46.526;24.612;2023-12-29T08:45:53;97865.38;;;-0.10;75.67
75146;BME280;63641;46.526;24.612;2023-12-29T08:48:24;97866.81;;;-0.01;75.78
75146;BME280;63641;46.526;24.612;2023-12-29T08:50:52;97862.75;;;0.03;75.76
75146;BME280;63641;46.526;24.612;2023-12-29T08:53:22;97866.63;;;0.07;76.08
75146;BME280;63641;46.526;24.612;2023-12-29T08:55:49;97859.50;;;0.08;75.79
75146;BME280;63641;46.526;24.612;2023-12-29T08:58:16;97867.47;;;0.14;76.12
75146;BME280;63641;46.526;24.612;2023-12-29T09:00:43;97856.66;;;0.16;76.28
75146;BME280;63641;46.526;24.612;2023-12-29T09:03:10;97855.41;;;0.25;76.50
75146;BME280;63641;46.526;24.612;2023-12-29T09:05:37;97849.50;;;0.30;76.56
75146;BME280;63641;46.526;24.612;2023-12-29T09:08:04;97844.59;;;0.33;76.54
75146;BME280;63641;46.526;24.612;2023-12-29T09:10:31;97858.72;;;0.47;76.57
75146;BME280;63641;46.526;24.612;2023-12-29T09:13:04;97854.84;;;0.56;76.49
75146;BME280;63641;46.526;24.612;2023-12-29T09:15:35;97849.72;;;0.68;76.83
75146;BME280;63641;46.526;24.612;2023-12-29T09:18:03;97846.66;;;0.78;76.73
75146;BME280;63641;46.526;24.612;2023-12-29T09:20:30;97847.03;;;0.88;76.40
75146;BME280;63641;46.526;24.612;2023-12-29T09:22:57;97837.81;;;0.97;76.67
75146;BME280;63641;46.526;24.612;2023-12-29T09:25:27;97829.38;;;1.07;76.80
75146;BME280;63641;46.526;24.612;2023-12-29T09:27:54;97829.19;;;1.22;76.61
75146;BME280;63641;46.526;24.612;2023-12-29T09:30:21;97815.63;;;1.30;76.84
75146;BME280;63641;46.526;24.612;2023-12-29T09:32:50;97824.38;;;1.43;76.56
75146;BME280;63641;46.526;24.612;2023-12-29T09:35:17;97827.63;;;1.59;76.89
75146;BME280;63641;46.526;24.612;2023-12-29T09:37:44;97819.75;;;1.71;76.96
75146;BME280;63641;46.526;24.612;2023-12-29T09:40:14;97815.78;;;1.86;76.66
75146;BME280;63641;46.526;24.612;2023-12-29T09:42:44;97816.09;;;2.03;76.61
75146;BME280;63641;46.526;24.612;2023-12-29T09:45:15;97812.50;;;2.23;76.56
75146;BME280;63641;46.526;24.612;2023-12-29T09:47:47;97801.53;;;2.31;76.13
75146;BME280;63641;46.526;24.612;2023-12-29T09:50:14;97816.53;;;2.57;76.02
75146;BME280;63641;46.526;24.612;2023-12-29T09:52:44;97815.78;;;2.75;75.91
75146;BME280;63641;46.526;24.612;2023-12-29T09:55:14;97818.28;;;2.95;75.91
75146;BME280;63641;46.526;24.612;2023-12-29T09:57:41;97809.69;;;3.11;75.71
75146;BME280;63641;46.526;24.612;2023-12-29T10:00:15;97801.91;;;3.28;75.58
75146;BME280;63641;46.526;24.612;2023-12-29T10:02:48;97789.91;;;3.49;75.13
75146;BME280;63641;46.526;24.612;2023-12-29T10:05:17;97799.78;;;3.67;75.27
75146;BME280;63641;46.526;24.612;2023-12-29T10:07:45;97792.34;;;3.87;75.13
75146;BME280;63641;46.526;24.612;2023-12-29T10:10:16;97795.41;;;4.02;75.10
75146;BME280;63641;46.526;24.612;2023-12-29T10:12:47;97787.16;;;4.16;74.69
75146;BME280;63641;46.526;24.612;2023-12-29T10:15:26;97788.03;;;4.28;74.55
75146;BME280;63641;46.526;24.612;2023-12-29T10:18:22;97780.38;;;4.43;74.35
75146;BME280;63641;46.526;24.612;2023-12-29T10:23:44;97785.66;;;4.73;73.95
75146;BME280;63641;46.526;24.612;2023-12-29T10:26:16;97772.84;;;4.87;74.01
75146;BME280;63641;46.526;24.612;2023-12-29T10:28:47;97776.66;;;5.03;73.39
75146;BME280;63641;46.526;24.612;2023-12-29T10:31:15;97771.06;;;5.16;73.02
75146;BME280;63641;46.526;24.612;2023-12-29T10:33:45;97769.53;;;5.32;73.01
75146;BME280;63641;46.526;24.612;2023-12-29T10:36:18;97756.78;;;5.39;72.91
75146;BME280;63641;46.526;24.612;2023-12-29T10:38:44;97768.91;;;5.53;72.30
75146;BME280;63641;46.526;24.612;2023-12-29T10:41:13;97769.66;;;5.66;72.48
75146;BME280;63641;46.526;24.612;2023-12-29T10:43:46;97767.19;;;5.76;72.11
75146;BME280;63641;46.526;24.612;2023-12-29T10:46:25;97762.00;;;5.86;71.93
75146;BME280;63641;46.526;24.612;2023-12-29T10:48:52;97752.06;;;5.98;71.71
75146;BME280;63641;46.526;24.612;2023-12-29T10:51:26;97747.44;;;6.11;71.49
75146;BME280;63641;46.526;24.612;2023-12-29T10:53:57;97746.06;;;6.25;71.23
75146;BME280;63641;46.526;24.612;2023-12-29T10:56:25;97736.63;;;6.39;70.83
75146;BME280;63641;46.526;24.612;2023-12-29T10:59:05;97716.25;;;6.43;70.72
75146;BME280;63641;46.526;24.612;2023-12-29T11:01:37;97724.00;;;6.57;70.54
75146;BME280;63641;46.526;24.612;2023-12-29T11:04:05;97721.38;;;6.62;70.20
75146;BME280;63641;46.526;24.612;2023-12-29T11:06:44;97733.50;;;6.81;69.92
75146;BME280;63641;46.526;24.612;2023-12-29T11:09:30;97719.56;;;6.84;69.68
75146;BME280;63641;46.526;24.612;2023-12-29T11:12:01;97733.47;;;6.98;69.38
75146;BME280;63641;46.526;24.612;2023-12-29T11:14:29;97737.72;;;7.11;69.33
75146;BME280;63641;46.526;24.612;2023-12-29T11:16:57;97727.63;;;7.23;68.95
75146;BME280;63641;46.526;24.612;2023-12-29T11:19:27;97728.00;;;7.32;68.93
75146;BME280;63641;46.526;24.612;2023-12-29T11:21:55;97719.25;;;7.41;68.40
75146;BME280;63641;46.526;24.612;2023-12-29T11:24:24;97714.59;;;7.59;68.16
75146;BME280;63641;46.526;24.612;2023-12-29T11:27:06;97717.97;;;7.71;67.81
75146;BME280;63641;46.526;24.612;2023-12-29T11:29:38;97713.00;;;7.85;67.55
75146;BME280;63641;46.526;24.612;2023-12-29T11:32:12;97706.63;;;7.96;67.10
75146;BME280;63641;46.526;24.612;2023-12-29T11:34:46;97696.72;;;8.02;66.72
75146;BME280;63641;46.526;24.612;2023-12-29T11:37:29;97698.19;;;8.14;66.36
75146;BME280;63641;46.526;24.612;2023-12-29T11:40:33;97696.00;;;8.11;66.24
75146;BME280;63641;46.526;24.612;2023-12-29T11:43:09;97691.22;;;8.18;66.01
75146;BME280;63641;46.526;24.612;2023-12-29T11:45:46;97689.84;;;8.16;65.89
75146;BME280;63641;46.526;24.612;2023-12-29T11:48:54;97690.41;;;8.18;65.91
75146;BME280;63641;46.526;24.612;2023-12-29T11:54:02;97687.16;;;8.21;65.75
75146;BME280;63641;46.526;24.612;2023-12-29T11:56:40;97686.13;;;8.22;65.76
75146;BME280;63641;46.526;24.612;2023-12-29T11:59:24;97685.00;;;8.18;65.98
75146;BME280;63641;46.526;24.612;2023-12-29T12:02:27;97685.53;;;8.15;65.75
75146;BME280;63641;46.526;24.612;2023-12-29T12:04:55;97677.97;;;8.17;65.58
75146;BME280;63641;46.526;24.612;2023-12-29T12:09:49;97689.16;;;8.31;65.27
75146;BME280;63641;46.526;24.612;2023-12-29T12:12:50;97678.13;;;8.32;65.17
75146;BME280;63641;46.526;24.612;2023-12-29T12:18:03;97676.84;;;8.40;64.92
75146;BME280;63641;46.526;24.612;2023-12-29T12:20:36;97677.66;;;8.40;64.78
75146;BME280;63641;46.526;24.612;2023-12-29T12:25:35;97676.84;;;8.40;64.88
75146;BME280;63641;46.526;24.612;2023-12-29T12:28:06;97674.41;;;8.38;64.56
75146;BME280;63641;46.526;24.612;2023-12-29T12:30:36;97683.06;;;8.40;64.57
75146;BME280;63641;46.526;24.612;2023-12-29T12:33:07;97678.47;;;8.41;64.50
75146;BME280;63641;46.526;24.612;2023-12-29T12:35:38;97681.47;;;8.44;64.49
75146;BME280;63641;46.526;24.612;2023-12-29T12:38:13;97660.91;;;8.38;64.59
75146;BME280;63641;46.526;24.612;2023-12-29T12:40:48;97680.09;;;8.42;64.48
75146;BME280;63641;46.526;24.612;2023-12-29T12:43:16;97675.78;;;8.41;64.55
75146;BME280;63641;46.526;24.612;2023-12-29T12:45:48;97676.84;;;8.40;64.46
75146;BME280;63641;46.526;24.612;2023-12-29T12:48:32;97673.59;;;8.38;64.43
75146;BME280;63641;46.526;24.612;2023-12-29T12:51:05;97675.47;;;8.37;64.38
75146;BME280;63641;46.526;24.612;2023-12-29T12:53:33;97663.81;;;8.32;64.41
75146;BME280;63641;46.526;24.612;2023-12-29T12:56:06;97668.38;;;8.31;64.39
75146;BME280;63641;46.526;24.612;2023-12-29T12:58:35;97666.47;;;8.27;64.39
75146;BME280;63641;46.526;24.612;2023-12-29T13:01:09;97667.56;;;8.26;64.33
75146;BME280;63641;46.526;24.612;2023-12-29T13:03:38;97658.06;;;8.18;64.39
75146;BME280;63641;46.526;24.612;2023-12-29T13:06:06;97671.56;;;8.23;64.67
75146;BME280;63641;46.526;24.612;2023-12-29T13:08:34;97675.63;;;8.26;64.56
75146;BME280;63641;46.526;24.612;2023-12-29T13:11:09;97662.38;;;8.19;64.46
75146;BME280;63641;46.526;24.612;2023-12-29T13:13:40;97679.38;;;8.24;64.58
75146;BME280;63641;46.526;24.612;2023-12-29T13:16:07;97676.66;;;8.19;64.62
75146;BME280;63641;46.526;24.612;2023-12-29T13:18:37;97672.03;;;8.15;64.44
75146;BME280;63641;46.526;24.612;2023-12-29T13:21:06;97670.16;;;8.15;64.48
75146;BME280;63641;46.526;24.612;2023-12-29T13:23:33;97673.94;;;8.14;64.58